sensor_id;sensor_type;location;lat;lon;timestamp;temperature;humidity
9209;DHT22;4639;48.862;9.188;2022-08-07T00:00:09;18.90;96.10
9209;DHT22;4639;48.862;9.188;2022-08-07T00:02:35;18.80;96.20
9209;DHT22;4639;48.862;9.188;2022-08-07T00:05:01;18.80;96.40
9209;DHT22;4639;48.862;9.188;2022-08-07T00:07:26;18.80;96.40
9209;DHT22;4639;48.862;9.188;2022-08-07T00:09:52;18.80;96.30
9209;DHT22;4639;48.862;9.188;2022-08-07T00:12:17;18.80;96.50
9209;DHT22;4639;48.862;9.188;2022-08-07T00:14:43;18.80;96.80
9209;DHT22;4639;48.862;9.188;2022-08-07T00:17:08;18.80;96.50
9209;DHT22;4639;48.862;9.188;2022-08-07T00:19:34;18.80;96.50
9209;DHT22;4639;48.862;9.188;2022-08-07T00:22:00;18.80;96.70
9209;DHT22;4639;48.862;9.188;2022-08-07T00:24:25;18.80;96.60
9209;DHT22;4639;48.862;9.188;2022-08-07T00:26:51;18.70;96.50
9209;DHT22;4639;48.862;9.188;2022-08-07T00:29:17;18.60;96.60
9209;DHT22;4639;48.862;9.188;2022-08-07T00:31:43;18.60;96.80
9209;DHT22;4639;48.862;9.188;2022-08-07T00:34:09;18.60;97.00
9209;DHT22;4639;48.862;9.188;2022-08-07T00:36:36;18.60;97.00
9209;DHT22;4639;48.862;9.188;2022-08-07T00:39:02;18.50;96.80
9209;DHT22;4639;48.862;9.188;2022-08-07T00:41:32;18.40;97.00
9209;DHT22;4639;48.862;9.188;2022-08-07T00:43:57;18.30;97.40
9209;DHT22;4639;48.862;9.188;2022-08-07T00:46:23;18.30;97.40
9209;DHT22;4639;48.862;9.188;2022-08-07T00:48:49;18.30;97.60
9209;DHT22;4639;48.862;9.188;2022-08-07T00:51:14;18.20;97.60
9209;DHT22;4639;48.862;9.188;2022-08-07T00:53:40;18.30;97.60
9209;DHT22;4639;48.862;9.188;2022-08-07T00:56:06;18.20;97.80
9209;DHT22;4639;48.862;9.188;2022-08-07T00:58:32;18.20;97.50
9209;DHT22;4639;48.862;9.188;2022-08-07T01:00:58;18.20;97.80
9209;DHT22;4639;48.862;9.188;2022-08-07T01:03:24;18.20;98.00
9209;DHT22;4639;48.862;9.188;2022-08-07T01:05:50;18.10;98.30
9209;DHT22;4639;48.862;9.188;2022-08-07T01:08:17;18.10;98.60
9209;DHT22;4639;48.862;9.188;2022-08-07T01:10:42;18.10;98.40
9209;DHT22;4639;48.862;9.188;2022-08-07T01:13:08;18.40;98.80
9209;DHT22;4639;48.862;9.188;2022-08-07T01:15:36;18.10;98.50
9209;DHT22;4639;48.862;9.188;2022-08-07T01:18:02;18.10;98.70
9209;DHT22;4639;48.862;9.188;2022-08-07T01:20:32;18.00;99.00
9209;DHT22;4639;48.862;9.188;2022-08-07T01:23:00;18.00;98.80
9209;DHT22;4639;48.862;9.188;2022-08-07T01:25:26;17.90;98.90
9209;DHT22;4639;48.862;9.188;2022-08-07T01:27:54;17.90;99.20
9209;DHT22;4639;48.862;9.188;2022-08-07T01:30:21;17.80;98.90
9209;DHT22;4639;48.862;9.188;2022-08-07T01:32:47;17.80;99.30
9209;DHT22;4639;48.862;9.188;2022-08-07T01:35:13;17.80;99.40
9209;DHT22;4639;48.862;9.188;2022-08-07T01:37:39;17.80;99.60
9209;DHT22;4639;48.862;9.188;2022-08-07T01:40:05;17.70;99.50
9209;DHT22;4639;48.862;9.188;2022-08-07T01:42:32;17.60;99.70
9209;DHT22;4639;48.862;9.188;2022-08-07T01:44:58;17.60;99.70
9209;DHT22;4639;48.862;9.188;2022-08-07T01:47:24;17.70;99.90
9209;DHT22;4639;48.862;9.188;2022-08-07T01:49:49;17.70;99.90
9209;DHT22;4639;48.862;9.188;2022-08-07T01:52:16;17.70;99.90
9209;DHT22;4639;48.862;9.188;2022-08-07T01:54:44;17.70;99.90
9209;DHT22;4639;48.862;9.188;2022-08-07T01:57:16;17.70;99.90
9209;DHT22;4639;48.862;9.188;2022-08-07T01:59:48;17.60;99.90
9209;DHT22;4639;48.862;9.188;2022-08-07T02:02:19;17.80;99.90
9209;DHT22;4639;48.862;9.188;2022-08-07T02:04:53;17.60;99.90
9209;DHT22;4639;48.862;9.188;2022-08-07T02:07:23;17.60;99.90
9209;DHT22;4639;48.862;9.188;2022-08-07T02:09:51;17.60;99.90
9209;DHT22;4639;48.862;9.188;2022-08-07T02:12:18;17.40;99.90
9209;DHT22;4639;48.862;9.188;2022-08-07T02:14:46;17.40;99.90
9209;DHT22;4639;48.862;9.188;2022-08-07T02:17:13;17.30;99.90
9209;DHT22;4639;48.862;9.188;2022-08-07T02:19:42;17.30;99.90
9209;DHT22;4639;48.862;9.188;2022-08-07T02:22:10;17.30;99.90
9209;DHT22;4639;48.862;9.188;2022-08-07T02:24:36;17.20;99.90
9209;DHT22;4639;48.862;9.188;2022-08-07T02:27:03;17.50;99.90
9209;DHT22;4639;48.862;9.188;2022-08-07T02:29:30;17.30;99.90
9209;DHT22;4639;48.862;9.188;2022-08-07T02:31:57;17.30;99.90
9209;DHT22;4639;48.862;9.188;2022-08-07T02:34:23;17.30;99.90
9209;DHT22;4639;48.862;9.188;2022-08-07T02:36:49;17.30;99.90
9209;DHT22;4639;48.862;9.188;2022-08-07T02:39:16;17.30;99.90
9209;DHT22;4639;48.862;9.188;2022-08-07T02:41:44;17.20;99.90
9209;DHT22;4639;48.862;9.188;2022-08-07T02:44:10;17.20;99.90
9209;DHT22;4639;48.862;9.188;2022-08-07T02:46:38;17.20;99.90
9209;DHT22;4639;48.862;9.188;2022-08-07T02:49:04;17.20;99.90
9209;DHT22;4639;48.862;9.188;2022-08-07T02:51:32;17.20;99.90
9209;DHT22;4639;48.862;9.188;2022-08-07T02:54:00;17.10;99.90
9209;DHT22;4639;48.862;9.188;2022-08-07T02:56:29;17.10;99.90
9209;DHT22;4639;48.862;9.188;2022-08-07T02:58:58;17.10;99.90
9209;DHT22;4639;48.862;9.188;2022-08-07T03:01:24;17.10;99.90
9209;DHT22;4639;48.862;9.188;2022-08-07T03:03:51;16.90;99.90
9209;DHT22;4639;48.862;9.188;2022-08-07T03:06:19;16.90;99.90
9209;DHT22;4639;48.862;9.188;2022-08-07T03:08:45;16.90;99.90
9209;DHT22;4639;48.862;9.188;2022-08-07T03:11:12;16.90;99.90
9209;DHT22;4639;48.862;9.188;2022-08-07T03:13:39;16.90;99.90
9209;DHT22;4639;48.862;9.188;2022-08-07T03:16:04;16.90;99.90
9209;DHT22;4639;48.862;9.188;2022-08-07T03:18:30;16.90;99.90
9209;DHT22;4639;48.862;9.188;2022-08-07T03:20:56;16.70;99.90
9209;DHT22;4639;48.862;9.188;2022-08-07T03:23:22;16.80;99.90
9209;DHT22;4639;48.862;9.188;2022-08-07T03:25:49;16.90;99.90
9209;DHT22;4639;48.862;9.188;2022-08-07T03:30:53;16.70;99.90
9209;DHT22;4639;48.862;9.188;2022-08-07T03:33:39;16.80;99.90
9209;DHT22;4639;48.862;9.188;2022-08-07T03:36:07;16.70;99.90
9209;DHT22;4639;48.862;9.188;2022-08-07T03:38:34;16.70;99.90
9209;DHT22;4639;48.862;9.188;2022-08-07T03:41:01;16.70;99.90
9209;DHT22;4639;48.862;9.188;2022-08-07T03:43:27;16.70;99.90
9209;DHT22;4639;48.862;9.188;2022-08-07T03:45:53;16.80;99.90
9209;DHT22;4639;48.862;9.188;2022-08-07T03:48:18;16.70;99.90
9209;DHT22;4639;48.862;9.188;2022-08-07T03:50:44;16.70;99.90
9209;DHT22;4639;48.862;9.188;2022-08-07T03:53:11;16.80;99.90
9209;DHT22;4639;48.862;9.188;2022-08-07T03:55:37;16.70;99.90
9209;DHT22;4639;48.862;9.188;2022-08-07T03:58:03;16.50;99.90
9209;DHT22;4639;48.862;9.188;2022-08-07T04:00:29;16.40;99.90
9209;DHT22;4639;48.862;9.188;2022-08-07T04:02:55;16.40;99.90
9209;DHT22;4639;48.862;9.188;2022-08-07T04:05:21;16.40;99.90
9209;DHT22;4639;48.862;9.188;2022-08-07T04:07:47;16.40;99.90
9209;DHT22;4639;48.862;9.188;2022-08-07T04:10:12;16.40;99.90
9209;DHT22;4639;48.862;9.188;2022-08-07T04:12:38;16.30;99.90
9209;DHT22;4639;48.862;9.188;2022-08-07T04:15:05;16.40;99.90
9209;DHT22;4639;48.862;9.188;2022-08-07T04:17:31;16.40;99.90
9209;DHT22;4639;48.862;9.188;2022-08-07T04:19:56;16.40;99.90
9209;DHT22;4639;48.862;9.188;2022-08-07T04:22:25;16.30;99.90
9209;DHT22;4639;48.862;9.188;2022-08-07T04:24:51;16.20;99.90
9209;DHT22;4639;48.862;9.188;2022-08-07T04:27:17;16.20;99.90
9209;DHT22;4639;48.862;9.188;2022-08-07T04:29:43;16.10;99.90
9209;DHT22;4639;48.862;9.188;2022-08-07T04:32:09;16.20;99.90
9209;DHT22;4639;48.862;9.188;2022-08-07T04:34:35;16.20;99.90
9209;DHT22;4639;48.862;9.188;2022-08-07T04:37:01;16.20;99.90
9209;DHT22;4639;48.862;9.188;2022-08-07T04:39:27;16.20;99.90
9209;DHT22;4639;48.862;9.188;2022-08-07T04:41:53;16.20;99.90
9209;DHT22;4639;48.862;9.188;2022-08-07T04:44:19;16.20;99.90
9209;DHT22;4639;48.862;9.188;2022-08-07T04:47:07;16.20;99.90
9209;DHT22;4639;48.862;9.188;2022-08-07T04:57:26;16.40;99.90
9209;DHT22;4639;48.862;9.188;2022-08-07T05:00:08;16.40;99.90
9209;DHT22;4639;48.862;9.188;2022-08-07T05:02:51;16.40;99.90
9209;DHT22;4639;48.862;9.188;2022-08-07T05:05:31;16.50;99.90
9209;DHT22;4639;48.862;9.188;2022-08-07T05:08:06;16.50;99.90
9209;DHT22;4639;48.862;9.188;2022-08-07T05:10:46;16.60;99.90
9209;DHT22;4639;48.862;9.188;2022-08-07T05:13:35;16.60;99.90
9209;DHT22;4639;48.862;9.188;2022-08-07T05:16:08;16.80;99.90
9209;DHT22;4639;48.862;9.188;2022-08-07T05:18:38;16.70;99.90
9209;DHT22;4639;48.862;9.188;2022-08-07T05:21:07;16.60;99.90
9209;DHT22;4639;48.862;9.188;2022-08-07T05:23:46;16.60;99.90
9209;DHT22;4639;48.862;9.188;2022-08-07T05:26:16;16.70;99.90
9209;DHT22;4639;48.862;9.188;2022-08-07T05:28:43;16.80;99.90
9209;DHT22;4639;48.862;9.188;2022-08-07T05:31:11;16.70;99.90
9209;DHT22;4639;48.862;9.188;2022-08-07T05:33:38;16.80;99.90
9209;DHT22;4639;48.862;9.188;2022-08-07T05:36:06;16.90;99.90
9209;DHT22;4639;48.862;9.188;2022-08-07T05:38:33;16.90;99.90
9209;DHT22;4639;48.862;9.188;2022-08-07T05:41:00;17.00;99.90
9209;DHT22;4639;48.862;9.188;2022-08-07T05:43:26;17.10;99.90
9209;DHT22;4639;48.862;9.188;2022-08-07T05:45:52;17.10;99.90
9209;DHT22;4639;48.862;9.188;2022-08-07T05:48:20;17.10;99.90
9209;DHT22;4639;48.862;9.188;2022-08-07T05:50:46;17.20;99.90
9209;DHT22;4639;48.862;9.188;2022-08-07T05:53:12;17.20;99.90
9209;DHT22;4639;48.862;9.188;2022-08-07T05:55:38;17.30;99.90
9209;DHT22;4639;48.862;9.188;2022-08-07T05:58:04;17.40;99.90
9209;DHT22;4639;48.862;9.188;2022-08-07T06:00:32;17.40;99.90
9209;DHT22;4639;48.862;9.188;2022-08-07T06:02:59;17.40;99.90
9209;DHT22;4639;48.862;9.188;2022-08-07T06:05:26;17.40;99.90
9209;DHT22;4639;48.862;9.188;2022-08-07T06:07:53;17.40;99.90
9209;DHT22;4639;48.862;9.188;2022-08-07T06:10:20;17.40;99.90
9209;DHT22;4639;48.862;9.188;2022-08-07T06:12:46;17.40;99.90
9209;DHT22;4639;48.862;9.188;2022-08-07T06:15:14;17.50;99.90
9209;DHT22;4639;48.862;9.188;2022-08-07T06:17:41;17.60;99.90
9209;DHT22;4639;48.862;9.188;2022-08-07T06:20:08;17.60;99.90
9209;DHT22;4639;48.862;9.188;2022-08-07T06:22:34;17.70;99.90
9209;DHT22;4639;48.862;9.188;2022-08-07T06:25:02;17.70;99.90
9209;DHT22;4639;48.862;9.188;2022-08-07T06:27:27;17.70;99.90
9209;DHT22;4639;48.862;9.188;2022-08-07T06:29:53;17.90;99.90
9209;DHT22;4639;48.862;9.188;2022-08-07T06:32:19;17.90;99.90
9209;DHT22;4639;48.862;9.188;2022-08-07T06:34:45;18.00;99.90
9209;DHT22;4639;48.862;9.188;2022-08-07T06:37:11;18.00;99.90
9209;DHT22;4639;48.862;9.188;2022-08-07T06:39:36;18.20;99.90
9209;DHT22;4639;48.862;9.188;2022-08-07T06:42:23;18.30;99.90
9209;DHT22;4639;48.862;9.188;2022-08-07T06:44:51;18.30;99.90
9209;DHT22;4639;48.862;9.188;2022-08-07T06:47:18;18.30;99.90
9209;DHT22;4639;48.862;9.188;2022-08-07T06:49:44;18.30;99.90
9209;DHT22;4639;48.862;9.188;2022-08-07T06:52:10;18.40;99.90
9209;DHT22;4639;48.862;9.188;2022-08-07T06:54:38;18.70;99.90
9209;DHT22;4639;48.862;9.188;2022-08-07T06:57:06;18.60;99.90
9209;DHT22;4639;48.862;9.188;2022-08-07T06:59:40;18.70;99.90
9209;DHT22;4639;48.862;9.188;2022-08-07T07:02:12;18.80;99.90
9209;DHT22;4639;48.862;9.188;2022-08-07T07:04:39;18.90;99.90
9209;DHT22;4639;48.862;9.188;2022-08-07T07:07:07;19.10;99.90
9209;DHT22;4639;48.862;9.188;2022-08-07T07:09:33;19.10;99.90
9209;DHT22;4639;48.862;9.188;2022-08-07T07:14:54;19.20;99.90
9209;DHT22;4639;48.862;9.188;2022-08-07T07:20:12;19.50;99.90
9209;DHT22;4639;48.862;9.188;2022-08-07T07:22:39;19.60;99.90
9209;DHT22;4639;48.862;9.188;2022-08-07T07:25:07;19.60;99.90
9209;DHT22;4639;48.862;9.188;2022-08-07T07:27:36;19.80;99.90
9209;DHT22;4639;48.862;9.188;2022-08-07T07:30:05;19.90;99.90
9209;DHT22;4639;48.862;9.188;2022-08-07T07:32:33;20.00;99.90
9209;DHT22;4639;48.862;9.188;2022-08-07T07:35:02;20.10;99.90
9209;DHT22;4639;48.862;9.188;2022-08-07T07:37:28;20.20;99.90
9209;DHT22;4639;48.862;9.188;2022-08-07T07:39:58;20.20;99.90
9209;DHT22;4639;48.862;9.188;2022-08-07T07:42:25;20.20;99.90
9209;DHT22;4639;48.862;9.188;2022-08-07T07:44:52;20.30;99.90
9209;DHT22;4639;48.862;9.188;2022-08-07T07:47:19;20.40;99.90
9209;DHT22;4639;48.862;9.188;2022-08-07T07:49:47;20.50;99.90
9209;DHT22;4639;48.862;9.188;2022-08-07T07:52:15;20.60;99.90
9209;DHT22;4639;48.862;9.188;2022-08-07T07:54:42;20.80;99.90
9209;DHT22;4639;48.862;9.188;2022-08-07T07:57:09;20.80;99.90
9209;DHT22;4639;48.862;9.188;2022-08-07T07:59:39;20.70;99.90
9209;DHT22;4639;48.862;9.188;2022-08-07T08:02:05;20.80;99.90
9209;DHT22;4639;48.862;9.188;2022-08-07T08:04:32;20.90;99.90
9209;DHT22;4639;48.862;9.188;2022-08-07T08:07:00;21.20;99.90
9209;DHT22;4639;48.862;9.188;2022-08-07T08:09:28;21.40;99.90
9209;DHT22;4639;48.862;9.188;2022-08-07T08:11:54;21.60;99.90
9209;DHT22;4639;48.862;9.188;2022-08-07T08:14:21;21.90;99.90
9209;DHT22;4639;48.862;9.188;2022-08-07T08:16:48;22.10;99.90
9209;DHT22;4639;48.862;9.188;2022-08-07T08:19:16;22.20;99.90
9209;DHT22;4639;48.862;9.188;2022-08-07T08:21:48;22.40;99.90
9209;DHT22;4639;48.862;9.188;2022-08-07T08:24:45;22.40;99.90
9209;DHT22;4639;48.862;9.188;2022-08-07T08:27:33;22.60;99.90
9209;DHT22;4639;48.862;9.188;2022-08-07T08:30:05;22.90;99.90
9209;DHT22;4639;48.862;9.188;2022-08-07T08:32:36;23.20;99.90
9209;DHT22;4639;48.862;9.188;2022-08-07T08:35:04;23.40;99.90
9209;DHT22;4639;48.862;9.188;2022-08-07T08:37:34;23.60;99.90
9209;DHT22;4639;48.862;9.188;2022-08-07T08:40:00;23.80;99.90
9209;DHT22;4639;48.862;9.188;2022-08-07T08:42:43;24.00;99.60
9209;DHT22;4639;48.862;9.188;2022-08-07T08:48:07;24.20;98.70
9209;DHT22;4639;48.862;9.188;2022-08-07T08:50:37;24.30;98.70
9209;DHT22;4639;48.862;9.188;2022-08-07T08:54:05;24.50;98.00
9209;DHT22;4639;48.862;9.188;2022-08-07T08:56:38;24.70;98.30
9209;DHT22;4639;48.862;9.188;2022-08-07T09:02:18;24.70;98.40
9209;DHT22;4639;48.862;9.188;2022-08-07T09:13:02;25.20;95.70
9209;DHT22;4639;48.862;9.188;2022-08-07T09:26:45;25.60;96.20
9209;DHT22;4639;48.862;9.188;2022-08-07T09:29:19;25.80;94.70
9209;DHT22;4639;48.862;9.188;2022-08-07T09:31:58;25.80;95.30
9209;DHT22;4639;48.862;9.188;2022-08-07T09:37:39;26.00;94.60
9209;DHT22;4639;48.862;9.188;2022-08-07T09:43:18;26.00;95.00
9209;DHT22;4639;48.862;9.188;2022-08-07T09:46:01;26.10;95.90
9209;DHT22;4639;48.862;9.188;2022-08-07T09:54:01;26.90;94.00
9209;DHT22;4639;48.862;9.188;2022-08-07T10:07:39;27.70;91.40
9209;DHT22;4639;48.862;9.188;2022-08-07T10:12:51;27.80;90.90
9209;DHT22;4639;48.862;9.188;2022-08-07T10:18:19;28.00;90.80
9209;DHT22;4639;48.862;9.188;2022-08-07T10:35:36;28.30;89.80
9209;DHT22;4639;48.862;9.188;2022-08-07T10:41:05;28.80;86.50
9209;DHT22;4639;48.862;9.188;2022-08-07T10:43:38;28.90;84.90
9209;DHT22;4639;48.862;9.188;2022-08-07T10:46:24;29.20;86.00
9209;DHT22;4639;48.862;9.188;2022-08-07T10:49:13;29.30;86.90
9209;DHT22;4639;48.862;9.188;2022-08-07T10:52:07;29.40;84.00
9209;DHT22;4639;48.862;9.188;2022-08-07T10:57:38;30.00;83.80
9209;DHT22;4639;48.862;9.188;2022-08-07T11:00:09;30.10;84.30
9209;DHT22;4639;48.862;9.188;2022-08-07T11:02:38;30.30;83.50
9209;DHT22;4639;48.862;9.188;2022-08-07T11:10:27;30.40;83.10
9209;DHT22;4639;48.862;9.188;2022-08-07T11:15:41;31.30;82.00
9209;DHT22;4639;48.862;9.188;2022-08-07T11:18:17;31.60;81.70
9209;DHT22;4639;48.862;9.188;2022-08-07T11:20:53;31.60;81.20
9209;DHT22;4639;48.862;9.188;2022-08-07T11:29:15;31.80;81.60
9209;DHT22;4639;48.862;9.188;2022-08-07T11:31:50;32.00;79.80
9209;DHT22;4639;48.862;9.188;2022-08-07T11:34:33;31.90;78.40
9209;DHT22;4639;48.862;9.188;2022-08-07T11:45:33;31.20;83.00
9209;DHT22;4639;48.862;9.188;2022-08-07T11:56:58;31.20;82.20
9209;DHT22;4639;48.862;9.188;2022-08-07T12:05:14;30.30;83.60
9209;DHT22;4639;48.862;9.188;2022-08-07T12:07:54;30.30;83.00
9209;DHT22;4639;48.862;9.188;2022-08-07T12:10:27;30.20;81.70
9209;DHT22;4639;48.862;9.188;2022-08-07T12:13:03;30.00;83.20
9209;DHT22;4639;48.862;9.188;2022-08-07T12:15:33;29.70;82.90
9209;DHT22;4639;48.862;9.188;2022-08-07T12:20:45;29.50;83.30
9209;DHT22;4639;48.862;9.188;2022-08-07T12:25:57;29.80;83.30
9209;DHT22;4639;48.862;9.188;2022-08-07T12:29:02;30.00;84.70
9209;DHT22;4639;48.862;9.188;2022-08-07T12:34:02;30.60;82.70
9209;DHT22;4639;48.862;9.188;2022-08-07T12:36:29;31.00;82.20
9209;DHT22;4639;48.862;9.188;2022-08-07T12:38:58;31.30;80.30
9209;DHT22;4639;48.862;9.188;2022-08-07T12:41:25;31.50;80.40
9209;DHT22;4639;48.862;9.188;2022-08-07T12:43:54;31.70;79.60
9209;DHT22;4639;48.862;9.188;2022-08-07T12:51:38;32.30;80.00
9209;DHT22;4639;48.862;9.188;2022-08-07T12:56:49;32.40;79.90
9209;DHT22;4639;48.862;9.188;2022-08-07T12:59:18;32.50;80.90
9209;DHT22;4639;48.862;9.188;2022-08-07T13:07:54;32.70;78.90
9209;DHT22;4639;48.862;9.188;2022-08-07T13:13:46;32.70;80.20
9209;DHT22;4639;48.862;9.188;2022-08-07T13:16:41;32.60;77.80
9209;DHT22;4639;48.862;9.188;2022-08-07T13:19:33;32.40;79.40
9209;DHT22;4639;48.862;9.188;2022-08-07T13:22:13;32.50;78.40
9209;DHT22;4639;48.862;9.188;2022-08-07T13:24:49;32.60;76.80
9209;DHT22;4639;48.862;9.188;2022-08-07T13:27:24;32.70;77.60
9209;DHT22;4639;48.862;9.188;2022-08-07T13:30:08;32.60;75.70
9209;DHT22;4639;48.862;9.188;2022-08-07T13:32:43;32.40;79.20
9209;DHT22;4639;48.862;9.188;2022-08-07T13:41:42;32.80;76.40
9209;DHT22;4639;48.862;9.188;2022-08-07T13:44:09;32.70;76.40
9209;DHT22;4639;48.862;9.188;2022-08-07T13:46:38;32.50;77.40
9209;DHT22;4639;48.862;9.188;2022-08-07T13:49:06;32.60;77.90
9209;DHT22;4639;48.862;9.188;2022-08-07T13:51:36;32.90;75.90
9209;DHT22;4639;48.862;9.188;2022-08-07T13:54:08;33.00;76.10
9209;DHT22;4639;48.862;9.188;2022-08-07T13:56:37;33.10;75.60
9209;DHT22;4639;48.862;9.188;2022-08-07T13:59:19;33.10;75.30
9209;DHT22;4639;48.862;9.188;2022-08-07T14:01:54;33.10;76.70
9209;DHT22;4639;48.862;9.188;2022-08-07T14:04:24;33.30;76.00
9209;DHT22;4639;48.862;9.188;2022-08-07T14:06:51;33.40;75.50
9209;DHT22;4639;48.862;9.188;2022-08-07T14:09:23;33.60;76.10
9209;DHT22;4639;48.862;9.188;2022-08-07T14:11:53;33.70;74.70
9209;DHT22;4639;48.862;9.188;2022-08-07T14:14:30;33.80;74.90
9209;DHT22;4639;48.862;9.188;2022-08-07T14:17:04;33.50;76.50
9209;DHT22;4639;48.862;9.188;2022-08-07T14:19:47;33.60;76.10
9209;DHT22;4639;48.862;9.188;2022-08-07T14:22:21;33.80;74.90
9209;DHT22;4639;48.862;9.188;2022-08-07T14:24:52;33.80;75.70
9209;DHT22;4639;48.862;9.188;2022-08-07T14:27:26;33.80;75.80
9209;DHT22;4639;48.862;9.188;2022-08-07T14:29:57;33.80;75.40
9209;DHT22;4639;48.862;9.188;2022-08-07T14:32:26;33.80;77.00
9209;DHT22;4639;48.862;9.188;2022-08-07T14:34:54;34.00;75.90
9209;DHT22;4639;48.862;9.188;2022-08-07T14:37:21;33.90;75.60
9209;DHT22;4639;48.862;9.188;2022-08-07T14:39:48;33.50;75.20
9209;DHT22;4639;48.862;9.188;2022-08-07T14:42:22;33.30;75.50
9209;DHT22;4639;48.862;9.188;2022-08-07T14:44:52;33.00;77.00
9209;DHT22;4639;48.862;9.188;2022-08-07T14:47:20;33.20;75.90
9209;DHT22;4639;48.862;9.188;2022-08-07T14:49:48;33.40;75.70
9209;DHT22;4639;48.862;9.188;2022-08-07T14:52:17;33.70;75.10
9209;DHT22;4639;48.862;9.188;2022-08-07T14:54:48;33.80;75.50
9209;DHT22;4639;48.862;9.188;2022-08-07T14:57:15;34.10;74.60
9209;DHT22;4639;48.862;9.188;2022-08-07T14:59:43;34.10;75.10
9209;DHT22;4639;48.862;9.188;2022-08-07T15:02:16;34.10;74.50
9209;DHT22;4639;48.862;9.188;2022-08-07T15:04:44;33.90;73.70
9209;DHT22;4639;48.862;9.188;2022-08-07T15:07:17;33.90;74.40
9209;DHT22;4639;48.862;9.188;2022-08-07T15:09:43;34.00;75.60
9209;DHT22;4639;48.862;9.188;2022-08-07T15:12:23;33.90;74.50
9209;DHT22;4639;48.862;9.188;2022-08-07T15:15:08;33.80;75.80
9209;DHT22;4639;48.862;9.188;2022-08-07T15:17:40;33.80;74.30
9209;DHT22;4639;48.862;9.188;2022-08-07T15:20:10;33.40;76.20
9209;DHT22;4639;48.862;9.188;2022-08-07T15:22:48;33.10;76.00
9209;DHT22;4639;48.862;9.188;2022-08-07T15:25:20;33.30;74.80
9209;DHT22;4639;48.862;9.188;2022-08-07T15:27:51;33.70;75.60
9209;DHT22;4639;48.862;9.188;2022-08-07T15:30:19;34.00;77.30
9209;DHT22;4639;48.862;9.188;2022-08-07T15:32:47;34.20;75.10
9209;DHT22;4639;48.862;9.188;2022-08-07T15:35:15;34.40;75.40
9209;DHT22;4639;48.862;9.188;2022-08-07T15:37:46;34.70;76.30
9209;DHT22;4639;48.862;9.188;2022-08-07T15:40:14;34.90;74.40
9209;DHT22;4639;48.862;9.188;2022-08-07T15:47:54;35.30;74.40
9209;DHT22;4639;48.862;9.188;2022-08-07T15:50:26;34.90;73.50
9209;DHT22;4639;48.862;9.188;2022-08-07T15:52:58;34.20;75.60
9209;DHT22;4639;48.862;9.188;2022-08-07T15:55:25;34.10;75.20
9209;DHT22;4639;48.862;9.188;2022-08-07T15:57:52;34.00;74.90
9209;DHT22;4639;48.862;9.188;2022-08-07T16:00:21;34.20;75.50
9209;DHT22;4639;48.862;9.188;2022-08-07T16:02:52;34.30;74.60
9209;DHT22;4639;48.862;9.188;2022-08-07T16:05:20;34.00;74.20
9209;DHT22;4639;48.862;9.188;2022-08-07T16:07:55;33.70;75.10
9209;DHT22;4639;48.862;9.188;2022-08-07T16:10:26;33.70;74.90
9209;DHT22;4639;48.862;9.188;2022-08-07T16:18:36;34.40;73.70
9209;DHT22;4639;48.862;9.188;2022-08-07T16:23:52;34.00;72.90
9209;DHT22;4639;48.862;9.188;2022-08-07T16:33:50;33.80;74.30
9209;DHT22;4639;48.862;9.188;2022-08-07T16:39:22;33.80;73.90
9209;DHT22;4639;48.862;9.188;2022-08-07T16:47:18;34.10;72.70
9209;DHT22;4639;48.862;9.188;2022-08-07T16:50:13;34.10;73.60
9209;DHT22;4639;48.862;9.188;2022-08-07T16:55:51;34.30;72.30
9209;DHT22;4639;48.862;9.188;2022-08-07T17:01:36;33.80;72.40
9209;DHT22;4639;48.862;9.188;2022-08-07T17:07:14;33.80;72.40
9209;DHT22;4639;48.862;9.188;2022-08-07T17:09:52;33.50;72.20
9209;DHT22;4639;48.862;9.188;2022-08-07T17:12:27;33.30;74.00
9209;DHT22;4639;48.862;9.188;2022-08-07T17:15:11;33.30;73.50
9209;DHT22;4639;48.862;9.188;2022-08-07T17:17:50;33.20;73.70
9209;DHT22;4639;48.862;9.188;2022-08-07T17:20:38;33.30;74.20
9209;DHT22;4639;48.862;9.188;2022-08-07T17:31:39;32.80;72.80
9209;DHT22;4639;48.862;9.188;2022-08-07T17:36:48;32.60;73.40
9209;DHT22;4639;48.862;9.188;2022-08-07T17:45:40;32.70;72.60
9209;DHT22;4639;48.862;9.188;2022-08-07T17:48:25;32.70;72.50
9209;DHT22;4639;48.862;9.188;2022-08-07T17:51:17;32.50;72.90
9209;DHT22;4639;48.862;9.188;2022-08-07T17:56:28;31.90;71.80
9209;DHT22;4639;48.862;9.188;2022-08-07T18:01:24;30.60;72.10
9209;DHT22;4639;48.862;9.188;2022-08-07T18:07:41;29.50;74.90
9209;DHT22;4639;48.862;9.188;2022-08-07T18:09:46;29.20;75.00
9209;DHT22;4639;48.862;9.188;2022-08-07T18:15:10;28.50;76.80
9209;DHT22;4639;48.862;9.188;2022-08-07T18:17:51;28.10;77.00
9209;DHT22;4639;48.862;9.188;2022-08-07T18:20:25;27.90;78.50
9209;DHT22;4639;48.862;9.188;2022-08-07T18:23:01;27.70;77.90
9209;DHT22;4639;48.862;9.188;2022-08-07T18:25:30;27.60;79.10
9209;DHT22;4639;48.862;9.188;2022-08-07T18:28:15;27.50;78.80
9209;DHT22;4639;48.862;9.188;2022-08-07T18:36:42;27.10;80.90
9209;DHT22;4639;48.862;9.188;2022-08-07T18:39:38;26.90;80.80
9209;DHT22;4639;48.862;9.188;2022-08-07T18:42:30;26.80;82.30
9209;DHT22;4639;48.862;9.188;2022-08-07T18:53:20;26.50;82.10
9209;DHT22;4639;48.862;9.188;2022-08-07T19:06:53;26.20;85.00
9209;DHT22;4639;48.862;9.188;2022-08-07T19:12:10;26.00;86.90
9209;DHT22;4639;48.862;9.188;2022-08-07T19:15:03;25.90;84.20
9209;DHT22;4639;48.862;9.188;2022-08-07T19:20:50;25.70;86.60
9209;DHT22;4639;48.862;9.188;2022-08-07T19:23:25;25.60;86.00
9209;DHT22;4639;48.862;9.188;2022-08-07T19:25:55;25.60;85.80
9209;DHT22;4639;48.862;9.188;2022-08-07T19:28:27;25.50;86.70
9209;DHT22;4639;48.862;9.188;2022-08-07T19:30:56;25.50;86.20
9209;DHT22;4639;48.862;9.188;2022-08-07T19:33:25;25.40;85.80
9209;DHT22;4639;48.862;9.188;2022-08-07T19:35:54;25.30;86.30
9209;DHT22;4639;48.862;9.188;2022-08-07T19:38:23;25.30;86.40
9209;DHT22;4639;48.862;9.188;2022-08-07T19:40:55;25.20;86.90
9209;DHT22;4639;48.862;9.188;2022-08-07T19:43:26;25.20;87.20
9209;DHT22;4639;48.862;9.188;2022-08-07T19:45:54;25.10;86.60
9209;DHT22;4639;48.862;9.188;2022-08-07T19:48:36;25.10;86.80
9209;DHT22;4639;48.862;9.188;2022-08-07T19:51:03;24.90;86.60
9209;DHT22;4639;48.862;9.188;2022-08-07T19:53:29;24.80;87.80
9209;DHT22;4639;48.862;9.188;2022-08-07T19:55:57;24.80;87.70
9209;DHT22;4639;48.862;9.188;2022-08-07T19:58:25;24.80;87.40
9209;DHT22;4639;48.862;9.188;2022-08-07T20:00:55;24.80;87.00
9209;DHT22;4639;48.862;9.188;2022-08-07T20:03:22;24.60;87.60
9209;DHT22;4639;48.862;9.188;2022-08-07T20:05:56;24.50;87.30
9209;DHT22;4639;48.862;9.188;2022-08-07T20:08:29;24.40;87.80
9209;DHT22;4639;48.862;9.188;2022-08-07T20:11:02;24.30;87.90
9209;DHT22;4639;48.862;9.188;2022-08-07T20:13:38;24.20;89.10
9209;DHT22;4639;48.862;9.188;2022-08-07T20:16:05;24.20;89.00
9209;DHT22;4639;48.862;9.188;2022-08-07T20:18:34;24.20;89.90
9209;DHT22;4639;48.862;9.188;2022-08-07T20:21:04;24.20;89.00
9209;DHT22;4639;48.862;9.188;2022-08-07T20:23:33;24.10;88.70
9209;DHT22;4639;48.862;9.188;2022-08-07T20:26:04;24.10;89.00
9209;DHT22;4639;48.862;9.188;2022-08-07T20:28:33;24.00;89.30
9209;DHT22;4639;48.862;9.188;2022-08-07T20:31:00;24.00;89.00
9209;DHT22;4639;48.862;9.188;2022-08-07T20:33:31;23.90;89.70
9209;DHT22;4639;48.862;9.188;2022-08-07T20:35:58;23.90;90.00
9209;DHT22;4639;48.862;9.188;2022-08-07T20:38:27;23.90;90.20
9209;DHT22;4639;48.862;9.188;2022-08-07T20:40:58;23.80;89.60